createdAt,value
2023-08-04T00:00:44.830Z,57.50
2023-08-04T00:03:11.974Z,57.50
2023-08-04T00:05:38.843Z,57.30
2023-08-04T00:08:06.269Z,57.20
2023-08-04T00:10:34.770Z,57.20
2023-08-04T00:13:01.678Z,56.70
2023-08-04T00:15:30.085Z,56.40
2023-08-04T00:18:02.503Z,56.20
2023-08-04T00:20:29.645Z,56.20
2023-08-04T00:22:56.527Z,55.80
2023-08-04T00:25:23.465Z,55.40
2023-08-04T00:27:50.422Z,55.10
2023-08-04T00:30:18.265Z,54.30
2023-08-04T00:32:45.339Z,53.70
2023-08-04T00:35:12.710Z,53.10
2023-08-04T00:37:39.632Z,50.80
2023-08-04T00:40:07.486Z,50.90
2023-08-04T00:42:34.983Z,50.90
2023-08-04T00:45:05.121Z,50.90
2023-08-04T00:47:36.732Z,50.30
2023-08-04T00:50:07.514Z,49.40
2023-08-04T00:52:38.110Z,49.30
2023-08-04T00:55:06.510Z,49.60
2023-08-04T00:57:34.192Z,49.50
2023-08-04T01:00:01.955Z,49.10
2023-08-04T01:02:28.998Z,48.60
2023-08-04T01:04:56.237Z,48.20
2023-08-04T01:07:26.867Z,48.20
2023-08-04T01:10:10.609Z,48.50
2023-08-04T01:12:40.745Z,48.80
2023-08-04T01:15:08.879Z,48.90
2023-08-04T01:17:37.189Z,49.00
2023-08-04T01:20:04.562Z,49.20
2023-08-04T01:22:31.616Z,49.10
2023-08-04T01:24:58.597Z,49.10
2023-08-04T01:27:33.275Z,49.70
2023-08-04T01:30:03.859Z,49.10
2023-08-04T01:32:31.291Z,49.20
2023-08-04T01:34:59.331Z,49.20
2023-08-04T01:37:26.302Z,49.10
2023-08-04T01:39:54.220Z,49.00
2023-08-04T01:42:21.305Z,49.00
2023-08-04T01:44:48.856Z,49.00
2023-08-04T01:47:16.030Z,49.10
2023-08-04T01:49:43.238Z,49.20
2023-08-04T01:52:10.565Z,49.20
2023-08-04T01:54:38.760Z,49.60
2023-08-04T01:57:06.063Z,49.90
2023-08-04T01:59:33.301Z,50.10
2023-08-04T02:02:00.177Z,50.00
2023-08-04T02:04:27.199Z,50.70
2023-08-04T02:06:54.135Z,50.50
2023-08-04T02:09:21.178Z,50.00
2023-08-04T02:11:48.215Z,49.30
2023-08-04T02:14:15.314Z,49.40
2023-08-04T02:16:42.755Z,49.00
2023-08-04T02:19:10.800Z,49.10
2023-08-04T02:21:38.486Z,49.00
2023-08-04T02:24:06.234Z,51.80
2023-08-04T02:26:34.703Z,52.00
2023-08-04T02:29:01.873Z,51.70
2023-08-04T02:31:31.379Z,52.30
2023-08-04T02:33:59.168Z,53.10
2023-08-04T02:36:26.500Z,53.40
2023-08-04T02:38:53.450Z,54.10
2023-08-04T02:41:20.365Z,55.40
2023-08-04T02:43:47.236Z,55.90
2023-08-04T02:46:14.300Z,56.70
2023-08-04T02:48:42.800Z,57.00
2023-08-04T02:51:12.045Z,57.10
2023-08-04T02:53:45.331Z,56.60
2023-08-04T02:56:14.961Z,56.40
2023-08-04T02:58:44.395Z,56.60
2023-08-04T03:01:12.754Z,56.70
2023-08-04T03:03:40.480Z,56.90
2023-08-04T03:06:07.990Z,57.40
2023-08-04T03:08:35.236Z,57.60
2023-08-04T03:11:02.163Z,57.90
2023-08-04T03:13:29.135Z,58.20
2023-08-04T03:15:59.432Z,59.20
2023-08-04T03:18:26.791Z,58.70
2023-08-04T03:20:54.681Z,58.90
2023-08-04T03:23:23.296Z,59.00
2023-08-04T03:25:51.485Z,59.10
2023-08-04T03:28:19.569Z,59.30
2023-08-04T03:30:46.550Z,59.30
2023-08-04T03:33:14.154Z,59.10
2023-08-04T03:35:41.135Z,59.50
2023-08-04T03:38:08.122Z,59.50
2023-08-04T03:40:35.068Z,59.50
2023-08-04T03:43:02.177Z,59.70
2023-08-04T03:45:29.444Z,59.70
2023-08-04T03:47:57.066Z,59.90
2023-08-04T03:50:27.038Z,60.10
2023-08-04T03:52:54.080Z,60.40
2023-08-04T03:55:21.115Z,60.60
2023-08-04T03:57:48.144Z,60.70
2023-08-04T04:00:15.226Z,60.70
2023-08-04T04:02:42.516Z,60.60
2023-08-04T04:05:11.264Z,60.50
2023-08-04T04:07:38.722Z,60.50
2023-08-04T04:10:07.529Z,60.70
2023-08-04T04:12:36.463Z,60.70
2023-08-04T04:15:06.182Z,60.60
2023-08-04T04:17:35.704Z,60.50
2023-08-04T04:20:02.879Z,60.50
2023-08-04T04:22:32.014Z,60.30
2023-08-04T04:24:59.166Z,60.50
2023-08-04T04:27:26.180Z,60.60
2023-08-04T04:29:53.243Z,60.70
2023-08-04T04:32:20.199Z,60.60
2023-08-04T04:34:47.757Z,60.50
2023-08-04T04:37:14.801Z,60.70
2023-08-04T04:39:41.726Z,60.70
2023-08-04T04:42:08.946Z,60.60
2023-08-04T04:44:36.331Z,60.60
2023-08-04T04:47:05.723Z,60.80
2023-08-04T04:49:32.760Z,60.80
2023-08-04T04:51:59.785Z,60.60
2023-08-04T04:54:28.525Z,60.60
2023-08-04T04:56:55.788Z,60.40
2023-08-04T04:59:22.843Z,60.20
2023-08-04T05:01:50.026Z,60.00
2023-08-04T05:04:17.224Z,59.80
2023-08-04T05:06:44.211Z,59.60
2023-08-04T05:09:11.501Z,59.60
2023-08-04T05:11:41.001Z,59.60
2023-08-04T05:14:08.018Z,59.60
2023-08-04T05:16:37.241Z,59.60
2023-08-04T05:19:04.229Z,59.60
2023-08-04T05:21:31.136Z,59.60
2023-08-04T05:23:58.089Z,59.60
2023-08-04T05:26:25.008Z,59.50
2023-08-04T05:28:51.982Z,59.50
2023-08-04T05:31:19.234Z,59.40
2023-08-04T05:33:46.154Z,59.40
2023-08-04T05:36:13.900Z,59.40
2023-08-04T05:38:41.259Z,59.70
2023-08-04T05:41:08.219Z,59.70
2023-08-04T05:43:35.226Z,60.20
2023-08-04T05:46:04.324Z,60.70
2023-08-04T05:48:32.461Z,60.80
2023-08-04T05:51:00.179Z,60.90
2023-08-04T05:53:27.540Z,60.80
2023-08-04T05:55:54.765Z,61.20
2023-08-04T05:58:21.959Z,61.20
2023-08-04T06:00:49.470Z,61.10
2023-08-04T06:03:16.607Z,61.50
2023-08-04T06:05:45.020Z,61.40
2023-08-04T06:08:12.150Z,61.40
2023-08-04T06:10:39.490Z,61.30
2023-08-04T06:13:07.898Z,61.70
2023-08-04T06:15:35.619Z,61.90
2023-08-04T06:18:03.373Z,62.10
2023-08-04T06:20:30.782Z,61.70
2023-08-04T06:22:57.838Z,61.10
2023-08-04T06:25:24.889Z,60.70
2023-08-04T06:27:52.335Z,60.40
2023-08-04T06:30:19.571Z,60.80
2023-08-04T06:32:48.655Z,60.70
2023-08-04T06:35:15.970Z,60.80
2023-08-04T06:37:43.205Z,60.90
2023-08-04T06:40:11.152Z,61.00
2023-08-04T06:42:38.395Z,61.30
2023-08-04T06:45:06.699Z,62.20
2023-08-04T06:47:34.593Z,62.30
2023-08-04T06:50:02.533Z,62.00
2023-08-04T06:52:29.558Z,61.40
2023-08-04T06:54:56.477Z,61.50
2023-08-04T06:57:24.162Z,61.70
2023-08-04T06:59:51.077Z,62.00
2023-08-04T07:02:18.604Z,62.40
2023-08-04T07:04:45.581Z,62.20
2023-08-04T07:07:13.354Z,62.30
2023-08-04T07:09:40.251Z,62.30
2023-08-04T07:12:07.881Z,62.30
2023-08-04T07:14:34.997Z,62.30
2023-08-04T07:17:01.953Z,62.50
2023-08-04T07:19:29.490Z,62.70
2023-08-04T07:21:58.853Z,62.70
2023-08-04T07:24:27.746Z,62.50
2023-08-04T07:26:55.244Z,62.70
2023-08-04T07:29:22.208Z,62.60
2023-08-04T07:31:49.441Z,62.60
2023-08-04T07:34:17.195Z,61.80
2023-08-04T07:36:44.394Z,61.90
2023-08-04T07:39:12.652Z,62.20
2023-08-04T07:41:39.622Z,62.90
2023-08-04T07:44:06.553Z,62.30
2023-08-04T07:46:33.468Z,61.70
2023-08-04T07:49:00.475Z,61.10
2023-08-04T07:51:27.530Z,60.90
2023-08-04T07:53:54.504Z,60.70
2023-08-04T07:56:22.767Z,60.50
2023-08-04T07:58:49.806Z,60.30
2023-08-04T08:01:17.159Z,60.40
2023-08-04T08:03:44.630Z,60.40
2023-08-04T08:06:11.995Z,60.50
2023-08-04T08:08:39.033Z,60.20
2023-08-04T08:11:10.735Z,60.60
2023-08-04T08:13:39.213Z,60.20
2023-08-04T08:16:18.280Z,60.40
2023-08-04T08:18:46.583Z,60.10
2023-08-04T08:21:14.713Z,59.70
2023-08-04T08:23:41.745Z,59.30
2023-08-04T08:26:08.780Z,59.30
2023-08-04T08:28:35.804Z,59.30
2023-08-04T08:31:02.835Z,58.80
2023-08-04T08:33:30.120Z,59.00
2023-08-04T08:35:57.568Z,58.60
2023-08-04T08:38:24.569Z,58.40
2023-08-04T08:40:51.871Z,58.80
2023-08-04T08:43:21.340Z,58.80
2023-08-04T08:45:51.347Z,58.80
2023-08-04T08:48:19.814Z,58.80
2023-08-04T08:50:52.326Z,59.00
2023-08-04T08:53:24.769Z,58.60
2023-08-04T08:55:52.342Z,58.50
2023-08-04T08:58:20.553Z,58.20
2023-08-04T09:00:47.846Z,58.50
2023-08-04T09:03:15.512Z,58.20
2023-08-04T09:05:42.479Z,58.30
2023-08-04T09:08:09.506Z,58.40
2023-08-04T09:10:39.174Z,59.20
2023-08-04T09:13:09.873Z,58.30
2023-08-04T09:15:53.698Z,58.60
2023-08-04T09:18:34.386Z,58.70
2023-08-04T09:21:14.130Z,58.30
2023-08-04T09:23:51.115Z,58.20
2023-08-04T09:26:18.613Z,58.50
2023-08-04T09:28:47.192Z,58.60
2023-08-04T09:31:17.735Z,58.50
2023-08-04T09:33:46.282Z,58.30
2023-08-04T09:36:17.759Z,58.00
2023-08-04T09:38:45.608Z,57.50
2023-08-04T09:41:14.592Z,57.40
2023-08-04T09:43:49.624Z,57.40
2023-08-04T09:46:21.204Z,57.10
2023-08-04T09:48:51.565Z,57.10
2023-08-04T09:51:20.397Z,57.40
2023-08-04T09:53:55.372Z,57.00
2023-08-04T09:56:28.364Z,56.80
2023-08-04T09:58:55.399Z,57.20
2023-08-04T10:01:22.439Z,56.50
2023-08-04T10:03:56.040Z,55.90
2023-08-04T10:06:23.899Z,55.80
2023-08-04T10:08:54.793Z,55.70
2023-08-04T10:11:22.469Z,55.50
2023-08-04T10:13:55.389Z,55.50
2023-08-04T10:16:26.859Z,55.40
2023-08-04T10:19:04.198Z,55.10
2023-08-04T10:21:39.143Z,55.20
2023-08-04T10:24:10.086Z,55.50
2023-08-04T10:26:49.166Z,55.30
2023-08-04T10:29:16.983Z,55.30
2023-08-04T10:31:55.551Z,55.70
2023-08-04T10:34:38.064Z,55.80
2023-08-04T10:37:10.528Z,55.80
2023-08-04T10:39:39.813Z,54.80
2023-08-04T10:42:55.927Z,54.00
2023-08-04T10:45:22.893Z,53.70
2023-08-04T10:50:24.766Z,52.80
2023-08-04T10:52:52.588Z,52.20
2023-08-04T10:55:19.554Z,52.10
2023-08-04T10:57:46.515Z,49.90
2023-08-04T11:00:15.626Z,50.50
2023-08-04T11:02:43.265Z,50.30
2023-08-04T11:05:13.086Z,50.60
2023-08-04T11:07:48.558Z,50.80
2023-08-04T11:10:17.496Z,51.00
2023-08-04T11:12:44.602Z,50.20
2023-08-04T11:15:12.360Z,48.60
2023-08-04T11:17:44.150Z,48.60
2023-08-04T11:22:50.297Z,47.70
2023-08-04T11:25:18.329Z,46.90
2023-08-04T11:27:47.087Z,46.20
2023-08-04T11:30:14.265Z,46.50
2023-08-04T11:32:41.337Z,46.30
2023-08-04T11:35:09.341Z,45.70
2023-08-04T11:37:36.528Z,45.60
2023-08-04T11:40:04.034Z,45.30
2023-08-04T11:42:31.249Z,45.10
2023-08-04T11:44:58.285Z,45.40
2023-08-04T11:47:26.963Z,45.30
2023-08-04T11:49:54.469Z,44.90
2023-08-04T11:52:24.057Z,43.20
2023-08-04T11:55:00.945Z,42.70
2023-08-04T11:57:28.127Z,42.50
2023-08-04T11:59:55.487Z,42.40
2023-08-04T12:02:25.476Z,42.80
2023-08-04T12:05:09.807Z,42.80
2023-08-04T12:07:37.022Z,43.10
2023-08-04T12:10:04.745Z,42.90
2023-08-04T12:12:39.656Z,42.50
2023-08-04T12:15:08.800Z,42.20
2023-08-04T12:17:41.435Z,42.20
2023-08-04T12:20:15.270Z,42.40
2023-08-04T12:22:44.180Z,42.30
2023-08-04T12:25:12.345Z,42.20
2023-08-04T12:27:39.765Z,41.60
2023-08-04T12:30:07.557Z,41.20
2023-08-04T12:32:34.668Z,41.30
2023-08-04T12:35:01.805Z,41.40
2023-08-04T12:37:28.781Z,41.60
2023-08-04T12:39:57.460Z,41.20
2023-08-04T12:42:25.471Z,40.20
2023-08-04T12:44:53.127Z,40.50
2023-08-04T12:47:20.384Z,40.40
2023-08-04T12:49:47.451Z,40.70
2023-08-04T12:52:14.487Z,40.60
2023-08-04T12:54:41.392Z,40.60
2023-08-04T12:57:10.232Z,40.70
2023-08-04T12:59:37.477Z,40.50
2023-08-04T13:02:05.037Z,40.70
2023-08-04T13:04:32.880Z,40.70
2023-08-04T13:06:59.869Z,40.80
2023-08-04T13:09:26.926Z,40.70
2023-08-04T13:11:53.850Z,40.90
2023-08-04T13:14:20.856Z,40.30
2023-08-04T13:16:48.201Z,39.30
2023-08-04T13:19:15.248Z,38.80
2023-08-04T13:21:42.325Z,39.30
2023-08-04T13:24:10.562Z,39.70
2023-08-04T13:26:37.531Z,39.50
2023-08-04T13:29:04.569Z,38.90
2023-08-04T13:31:31.595Z,38.90
2023-08-04T13:33:58.797Z,39.80
2023-08-04T13:36:26.067Z,40.30
2023-08-04T13:38:52.958Z,40.70
2023-08-04T13:41:20.054Z,41.00
2023-08-04T13:43:48.275Z,41.30
2023-08-04T13:46:15.702Z,41.00
2023-08-04T13:48:42.776Z,40.70
2023-08-04T13:51:25.023Z,39.40
2023-08-04T13:53:54.335Z,39.70
2023-08-04T13:56:21.391Z,39.80
2023-08-04T13:58:51.842Z,40.60
2023-08-04T14:01:19.153Z,40.00
2023-08-04T14:03:46.338Z,39.00
2023-08-04T14:06:13.362Z,38.90
2023-08-04T14:08:40.249Z,38.20
2023-08-04T14:11:07.287Z,38.50
2023-08-04T14:13:34.251Z,38.50
2023-08-04T14:16:15.039Z,38.20
2023-08-04T14:18:43.091Z,38.70
2023-08-04T14:21:10.415Z,38.60
2023-08-04T14:23:38.111Z,38.80
2023-08-04T14:26:05.079Z,39.50
2023-08-04T14:28:32.129Z,39.70
2023-08-04T14:30:59.264Z,39.30
2023-08-04T14:33:26.970Z,39.10
2023-08-04T14:35:54.514Z,39.10
2023-08-04T14:38:21.574Z,38.90
2023-08-04T14:40:48.516Z,39.00
2023-08-04T14:43:15.790Z,39.00
2023-08-04T14:45:42.766Z,39.20
2023-08-04T14:48:09.891Z,39.10
2023-08-04T14:50:44.725Z,39.30
2023-08-04T14:53:12.052Z,39.80
2023-08-04T14:55:39.929Z,40.30
2023-08-04T14:58:07.276Z,40.40
2023-08-04T15:00:34.591Z,40.90
2023-08-04T15:03:01.796Z,40.60
2023-08-04T15:05:35.149Z,40.70
2023-08-04T15:08:02.756Z,40.90
2023-08-04T15:10:30.135Z,41.10
2023-08-04T15:12:57.203Z,40.50
2023-08-04T15:15:24.164Z,40.60
2023-08-04T15:17:51.365Z,40.90
2023-08-04T15:20:20.039Z,41.20
2023-08-04T15:22:47.082Z,41.40
2023-08-04T15:25:14.021Z,41.50
2023-08-04T15:27:41.028Z,41.50
2023-08-04T15:30:08.579Z,41.60
2023-08-04T15:32:35.541Z,41.80
2023-08-04T15:35:02.552Z,41.90
2023-08-04T15:37:29.901Z,41.90
2023-08-04T15:39:58.038Z,42.00
2023-08-04T15:42:25.144Z,42.10
2023-08-04T15:44:52.097Z,42.50
2023-08-04T15:47:19.333Z,42.70
2023-08-04T15:49:46.499Z,43.00
2023-08-04T15:52:13.435Z,43.20
2023-08-04T15:54:40.544Z,43.60
2023-08-04T15:57:07.915Z,43.10
2023-08-04T15:59:35.218Z,43.20
2023-08-04T16:02:03.068Z,43.10
2023-08-04T16:04:30.146Z,43.00
2023-08-04T16:06:57.106Z,43.10
2023-08-04T16:09:23.993Z,43.20
2023-08-04T16:11:50.960Z,43.50
2023-08-04T16:14:17.852Z,43.50
2023-08-04T16:16:44.915Z,43.80
2023-08-04T16:19:12.045Z,43.80
2023-08-04T16:21:39.240Z,43.90
2023-08-04T16:24:06.367Z,44.00
2023-08-04T16:26:33.392Z,44.10
2023-08-04T16:29:00.291Z,44.30
2023-08-04T16:31:27.237Z,44.20
2023-08-04T16:33:55.669Z,44.20
2023-08-04T16:36:22.839Z,44.30
2023-08-04T16:38:50.036Z,44.40
2023-08-04T16:41:20.088Z,44.50
2023-08-04T16:43:47.275Z,44.70
2023-08-04T16:46:15.061Z,44.70
2023-08-04T16:48:42.074Z,44.80
2023-08-04T16:51:09.015Z,45.00
2023-08-04T16:53:35.890Z,45.10
2023-08-04T16:56:06.904Z,45.20
2023-08-04T16:58:34.165Z,45.30
2023-08-04T17:01:01.788Z,45.60
2023-08-04T17:03:29.379Z,45.50
2023-08-04T17:05:56.290Z,45.70
2023-08-04T17:08:23.269Z,46.50
2023-08-04T17:10:50.390Z,46.90
2023-08-04T17:13:17.300Z,47.20
2023-08-04T17:15:44.875Z,46.60
2023-08-04T17:18:13.853Z,46.60
2023-08-04T17:20:41.595Z,46.80
2023-08-04T17:23:08.626Z,46.90
2023-08-04T17:25:35.648Z,46.80
2023-08-04T17:28:02.651Z,46.80
2023-08-04T17:30:29.604Z,46.80
2023-08-04T17:32:57.744Z,47.00
2023-08-04T17:35:24.905Z,47.30
2023-08-04T17:37:51.841Z,47.90
2023-08-04T17:40:18.998Z,48.90
2023-08-04T17:42:46.039Z,48.80
2023-08-04T17:45:12.976Z,48.80
2023-08-04T17:47:39.954Z,48.80
2023-08-04T17:50:07.360Z,49.20
2023-08-04T17:52:34.474Z,48.90
2023-08-04T17:55:02.244Z,48.80
2023-08-04T17:57:29.289Z,49.10
2023-08-04T17:59:56.360Z,49.20
2023-08-04T18:02:24.796Z,50.60
2023-08-04T18:04:52.066Z,52.00
2023-08-04T18:07:19.259Z,52.40
2023-08-04T18:09:46.306Z,52.50
2023-08-04T18:12:13.278Z,54.10
2023-08-04T18:14:40.277Z,56.00
2023-08-04T18:17:07.560Z,55.60
2023-08-04T18:19:34.602Z,55.40
2023-08-04T18:22:01.694Z,55.90
2023-08-04T18:24:28.825Z,55.90
2023-08-04T18:26:55.762Z,56.30
2023-08-04T18:29:23.116Z,56.50
2023-08-04T18:31:50.299Z,56.10
2023-08-04T18:34:17.195Z,56.20
2023-08-04T18:36:44.074Z,55.50
2023-08-04T18:39:10.995Z,55.20
2023-08-04T18:41:37.909Z,54.00
2023-08-04T18:44:09.461Z,53.70
2023-08-04T18:46:36.821Z,54.50
2023-08-04T18:49:03.912Z,55.20
2023-08-04T18:51:30.962Z,54.80
2023-08-04T18:53:57.967Z,54.60
2023-08-04T18:56:26.218Z,54.70
2023-08-04T18:58:53.249Z,55.10
2023-08-04T19:01:20.313Z,55.10
2023-08-04T19:03:47.423Z,55.10
2023-08-04T19:06:14.516Z,55.50
2023-08-04T19:08:41.683Z,55.60
2023-08-04T19:11:08.745Z,56.40
2023-08-04T19:13:35.660Z,57.10
2023-08-04T19:16:02.603Z,57.80
2023-08-04T19:18:29.546Z,58.10
2023-08-04T19:20:56.415Z,58.80
2023-08-04T19:23:23.545Z,58.70
2023-08-04T19:25:50.558Z,58.40
2023-08-04T19:28:17.506Z,58.70
2023-08-04T19:30:44.977Z,58.60
2023-08-04T19:33:11.986Z,58.60
2023-08-04T19:35:38.959Z,58.60
2023-08-04T19:38:05.923Z,58.20
2023-08-04T19:40:33.093Z,58.10
2023-08-04T19:43:01.729Z,57.60
2023-08-04T19:45:29.979Z,57.50
2023-08-04T19:47:57.005Z,58.10
2023-08-04T19:50:24.009Z,57.80
2023-08-04T19:52:50.982Z,57.80
2023-08-04T19:55:25.050Z,57.90
2023-08-04T19:58:04.779Z,57.20
2023-08-04T20:00:31.727Z,56.90
2023-08-04T20:02:58.670Z,56.30
2023-08-04T20:05:25.648Z,56.60
2023-08-04T20:07:52.550Z,56.40
2023-08-04T20:10:19.499Z,56.70
2023-08-04T20:12:46.519Z,56.70
2023-08-04T20:15:13.538Z,57.90
2023-08-04T20:17:40.445Z,58.70
2023-08-04T20:20:08.026Z,59.10
2023-08-04T20:22:36.880Z,59.80
2023-08-04T20:25:04.174Z,60.60
2023-08-04T20:27:31.286Z,60.90
2023-08-04T20:29:58.189Z,60.50
2023-08-04T20:32:25.094Z,60.30
2023-08-04T20:34:52.015Z,60.20
2023-08-04T20:37:18.984Z,61.10
2023-08-04T20:39:46.025Z,61.80
2023-08-04T20:42:13.707Z,61.90
2023-08-04T20:44:40.629Z,61.90
2023-08-04T20:47:07.565Z,62.00
2023-08-04T20:49:34.544Z,61.80
2023-08-04T20:52:01.455Z,61.40
2023-08-04T20:54:28.438Z,61.00
2023-08-04T20:56:55.338Z,61.40
2023-08-04T20:59:22.266Z,61.10
2023-08-04T21:01:49.433Z,60.90
2023-08-04T21:04:16.799Z,61.50
2023-08-04T21:06:47.192Z,61.50
2023-08-04T21:09:15.049Z,62.10
2023-08-04T21:11:45.013Z,62.30
2023-08-04T21:14:11.971Z,62.00
2023-08-04T21:16:39.267Z,62.20
2023-08-04T21:19:06.382Z,62.30
2023-08-04T21:21:34.465Z,62.30
2023-08-04T21:24:01.482Z,62.10
2023-08-04T21:26:28.838Z,61.90
2023-08-04T21:28:55.838Z,62.00
2023-08-04T21:31:22.814Z,62.10
2023-08-04T21:33:50.017Z,62.10
2023-08-04T21:36:17.048Z,62.40
2023-08-04T21:38:44.058Z,62.20
2023-08-04T21:41:11.067Z,62.20
2023-08-04T21:43:38.107Z,62.50
2023-08-04T21:46:10.128Z,62.50
2023-08-04T21:48:37.475Z,62.60
2023-08-04T21:51:30.772Z,62.30
2023-08-04T21:53:57.713Z,62.00
2023-08-04T21:56:26.320Z,62.10
2023-08-04T21:58:53.614Z,61.80
2023-08-04T22:01:20.577Z,62.00
2023-08-04T22:03:47.565Z,62.20
2023-08-04T22:06:14.562Z,62.30
2023-08-04T22:08:41.486Z,62.30
2023-08-04T22:11:09.884Z,61.90
2023-08-04T22:13:41.781Z,61.80
2023-08-04T22:16:09.609Z,61.50
2023-08-04T22:18:37.392Z,61.30
2023-08-04T22:21:08.897Z,60.80
2023-08-04T22:23:37.442Z,60.70
2023-08-04T22:26:06.229Z,61.00
2023-08-04T22:28:34.541Z,61.30
2023-08-04T22:31:02.085Z,61.40
2023-08-04T22:33:31.318Z,61.70
2023-08-04T22:35:58.667Z,61.70
2023-08-04T22:38:25.670Z,61.90
2023-08-04T22:40:52.542Z,62.00
2023-08-04T22:43:19.765Z,62.30
2023-08-04T22:45:46.857Z,61.70
2023-08-04T22:48:14.323Z,61.50
2023-08-04T22:50:41.252Z,61.60
2023-08-04T22:53:08.181Z,61.50
2023-08-04T22:55:39.351Z,61.80
2023-08-04T22:58:06.358Z,61.80
2023-08-04T23:00:33.500Z,61.20
2023-08-04T23:03:00.490Z,60.90
2023-08-04T23:05:32.816Z,60.70
2023-08-04T23:08:00.053Z,60.50
2023-08-04T23:10:26.942Z,60.30
2023-08-04T23:12:53.904Z,60.10
2023-08-04T23:15:20.852Z,60.00
2023-08-04T23:17:47.862Z,60.00
2023-08-04T23:20:14.951Z,60.10
2023-08-04T23:22:41.863Z,60.00
2023-08-04T23:25:09.073Z,60.40
2023-08-04T23:27:35.986Z,60.60
2023-08-04T23:30:03.151Z,60.60
2023-08-04T23:32:30.769Z,60.60
2023-08-04T23:34:57.693Z,60.60
2023-08-04T23:37:24.554Z,61.00
2023-08-04T23:39:51.456Z,61.40
2023-08-04T23:42:18.463Z,61.90
2023-08-04T23:44:45.518Z,62.10
2023-08-04T23:47:12.441Z,62.20
2023-08-04T23:49:39.481Z,61.80
2023-08-04T23:52:06.644Z,61.40
2023-08-04T23:54:33.556Z,61.30
2023-08-04T23:57:00.492Z,61.50
2023-08-04T23:59:27.442Z,61.60
